| time (UTC) | temp F | wind direction | speed knots | gust knots | rain 1hr in | rain 24hr in | rain mn in | humidity % | barometer mb |
| 20260510083009 | 67 | 145 | 0.0 | 2.6 | 0.00 | 0.00 | 0.00 | 87 | 1015.2 |
| 20260510081545 | 67 | 158 | 0.0 | 3.5 | 0.00 | 0.00 | 0.00 | 87 | 1014.9 |
| 20260510080049 | 67 | 169 | 0.0 | 1.7 | 0.00 | 0.00 | 0.00 | 85 | 1014.8 |
| 20260510074509 | 67 | 187 | 0.0 | 1.7 | 0.00 | 0.00 | 0.00 | 84 | 1014.8 |
| 20260510073051 | 68 | 190 | 0.0 | 2.6 | 0.00 | 0.00 | 0.00 | 84 | 1014.7 |
| 20260510071528 | 68 | 177 | 0.0 | 2.6 | 0.00 | 0.00 | 0.00 | 83 | 1014.8 |
| 20260510070010 | 68 | 120 | 0.0 | 4.3 | 0.00 | 0.00 | 0.00 | 81 | 1015.0 |
| 20260510064549 | 69 | 206 | 0.0 | 2.6 | 0.00 | 0.00 | 0.00 | 80 | 1014.9 |
| 20260510063031 | 69 | 170 | 0.9 | 3.5 | 0.00 | 0.00 | 0.00 | 80 | 1015.0 |
| 20260510061507 | 69 | 160 | 0.9 | 2.6 | 0.00 | 0.00 | 0.00 | 80 | 1015.1 |
| 20260510060051 | 69 | 177 | 0.9 | 3.5 | 0.00 | 0.00 | 0.00 | 79 | 1015.0 |
| 20260510054523 | 69 | 162 | 0.9 | 2.6 | 0.00 | 0.00 | 0.00 | 78 | 1015.0 |
| 20260510053004 | 70 | 179 | 0.0 | 3.5 | 0.00 | 0.00 | 0.00 | 77 | 1014.8 |
| 20260510051554 | 70 | 133 | 0.0 | 3.5 | 0.00 | 0.00 | 0.00 | 77 | 1014.6 |
| 20260510050026 | 70 | 165 | 1.7 | 4.3 | 0.00 | 0.00 | 0.00 | 76 | 1014.6 |
| 20260510044505 | 71 | 163 | 1.7 | 5.2 | 0.00 | 0.00 | 0.00 | 75 | 1014.4 |
| 20260510043045 | 71 | 154 | 2.6 | 5.2 | 0.00 | 0.00 | 0.00 | 74 | 1014.6 |
| 20260510041527 | 71 | 149 | 1.7 | 5.2 | 0.00 | 0.00 | 0.00 | 72 | 1014.3 |
| 20260510040010 | 72 | 199 | 0.0 | 2.6 | 0.00 | 0.00 | 0.00 | 68 | 1014.5 |
| 20260510034547 | 72 | 27 | 0.0 | 2.6 | 0.00 | 0.00 | 0.00 | 65 | 1014.5 |
| 20260510033029 | 73 | 218 | 0.9 | 3.5 | 0.00 | 0.00 | 0.00 | 63 | 1014.3 |
| 20260510031509 | 73 | 91 | 0.9 | 2.6 | 0.00 | 0.00 | 0.00 | 60 | 1013.9 |
| 20260510030045 | 74 | 198 | 0.0 | 2.6 | 0.00 | 0.00 | 0.00 | 60 | 1013.8 |
| 20260510024529 | 74 | 94 | 0.9 | 2.6 | 0.00 | 0.00 | 0.00 | 58 | 1013.6 |
| 20260510023009 | 74 | 83 | 0.9 | 2.6 | 0.00 | 0.00 | 0.00 | 57 | 1013.5 |
| 20260510021637 | 74 | 80 | 0.9 | 3.5 | 0.00 | 0.00 | 0.00 | 58 | 1013.3 |
| 20260510020027 | 75 | 87 | 0.9 | 2.6 | 0.00 | 0.00 | 0.00 | 58 | 1013.3 |
| 20260510014521 | 75 | 76 | 0.9 | 2.6 | 0.00 | 0.00 | 0.00 | 59 | 1013.2 |
| 20260510013101 | 75 | 118 | 0.9 | 4.3 | 0.00 | 0.00 | 0.00 | 58 | 1013.0 |
| 20260510011529 | 76 | 91 | 0.0 | 3.5 | 0.00 | 0.00 | 0.00 | 59 | 1012.9 |
| 20260510010021 | 77 | 95 | 0.0 | 4.3 | 0.00 | 0.00 | 0.00 | 59 | 1012.7 |
| 20260510004552 | 78 | 85 | 3.5 | 5.2 | 0.00 | 0.00 | 0.00 | 58 | 1012.6 |
| 20260510003032 | 79 | 64 | 2.6 | 7.0 | 0.00 | 0.00 | 0.00 | 57 | 1012.4 |
| 20260510001512 | 80 | 57 | 3.5 | 6.1 | 0.00 | 0.00 | 0.00 | 55 | 1012.3 |
| 20260510000054 | 80 | 55 | 1.7 | 7.0 | 0.00 | 0.00 | 0.00 | 54 | 1012.2 |
| 20260509234535 | 81 | 67 | 2.6 | 7.8 | 0.00 | 0.00 | 0.00 | 54 | 1012.1 |
| 20260509233014 | 82 | 81 | 2.6 | 8.7 | 0.00 | 0.00 | 0.00 | 52 | 1012.0 |
| 20260509231556 | 82 | 27 | 2.6 | 8.7 | 0.00 | 0.00 | 0.00 | 51 | 1012.0 |
| 20260509230039 | 82 | 48 | 3.5 | 7.8 | 0.00 | 0.00 | 0.00 | 52 | 1012.0 |
| 20260509224523 | 83 | 52 | 2.6 | 7.8 | 0.00 | 0.00 | 0.00 | 53 | 1011.9 |
| 20260509223006 | 82 | 81 | 0.0 | 6.1 | 0.00 | 0.00 | 0.00 | 52 | 1011.8 |
| 20260509221549 | 81 | 56 | 2.6 | 7.8 | 0.00 | 0.00 | 0.00 | 54 | 1011.8 |
| 20260509220030 | 81 | 14 | 1.7 | 5.2 | 0.00 | 0.00 | 0.00 | 56 | 1011.7 |
| 20260509214511 | 82 | 66 | 1.7 | 6.1 | 0.00 | 0.00 | 0.00 | 53 | 1011.7 |
| 20260509213105 | 82 | 41 | 0.9 | 5.2 | 0.00 | 0.00 | 0.00 | 53 | 1011.6 |
| 20260509211536 | 85 | 29 | 3.5 | 7.8 | 0.00 | 0.00 | 0.00 | 49 | 1011.7 |
| 20260509210018 | 86 | 30 | 0.9 | 7.0 | 0.00 | 0.00 | 0.00 | 46 | 1011.8 |
| 20260509204557 | 85 | 48 | 2.6 | 6.1 | 0.00 | 0.00 | 0.00 | 47 | 1011.9 |
| 20260509203042 | 83 | 64 | 1.7 | 4.3 | 0.00 | 0.00 | 0.00 | 49 | 1012.0 |
| 20260509201526 | 84 | 62 | 2.6 | 9.6 | 0.00 | 0.00 | 0.00 | 48 | 1012.3 |
| 20260509200004 | 85 | 44 | 2.6 | 7.8 | 0.00 | 0.00 | 0.00 | 40 | 1012.4 |
| 20260509194557 | 86 | 334 | 2.6 | 7.0 | 0.00 | 0.00 | 0.00 | 46 | 1012.7 |
| 20260509193026 | 85 | 354 | 1.7 | 8.7 | 0.00 | 0.00 | 0.00 | 41 | 1012.8 |
| 20260509191514 | 83 | 164 | 0.0 | 9.6 | 0.00 | 0.00 | 0.00 | 46 | 1012.7 |
| 20260509190056 | 83 | 212 | 0.9 | 7.0 | 0.00 | 0.00 | 0.00 | 51 | 1012.7 |
| 20260509184539 | 84 | 199 | 0.0 | 3.5 | 0.00 | 0.00 | 0.00 | 47 | 1012.9 |
| 20260509183021 | 82 | 68 | 4.3 | 9.6 | 0.00 | 0.00 | 0.00 | 52 | 1013.1 |
| 20260509181605 | 82 | 74 | 3.5 | 7.8 | 0.00 | 0.00 | 0.00 | 55 | 1013.0 |
| 20260509180050 | 81 | 60 | 0.0 | 7.0 | 0.00 | 0.00 | 0.00 | 56 | 1013.3 |
| 20260509174517 | 82 | 4 | 1.7 | 4.3 | 0.00 | 0.00 | 0.00 | 57 | 1013.4 |
| 20260509173105 | 81 | 69 | 0.0 | 6.1 | 0.00 | 0.00 | 0.00 | 59 | 1013.5 |
| 20260509171536 | 79 | 349 | 0.9 | 5.2 | 0.00 | 0.00 | 0.00 | 62 | 1013.5 |
| 20260509170015 | 78 | 301 | 3.5 | 7.0 | 0.00 | 0.00 | 0.00 | 63 | 1013.5 |
| 20260509164546 | 78 | 332 | 3.5 | 7.0 | 0.00 | 0.00 | 0.00 | 64 | 1013.4 |
| 20260509163029 | 76 | 316 | 2.6 | 7.8 | 0.00 | 0.00 | 0.00 | 66 | 1013.3 |
| 20260509161509 | 75 | 255 | 0.9 | 7.8 | 0.00 | 0.00 | 0.00 | 68 | 1013.4 |
| 20260509160043 | 75 | 293 | 3.5 | 7.8 | 0.00 | 0.00 | 0.00 | 66 | 1013.5 |
| 20260509154523 | 75 | 262 | 3.5 | 7.8 | 0.00 | 0.00 | 0.00 | 65 | 1013.4 |
| 20260509153103 | 76 | 270 | 0.9 | 5.2 | 0.00 | 0.00 | 0.00 | 65 | 1013.4 |
| 20260509151537 | 75 | 318 | 0.9 | 3.5 | 0.00 | 0.00 | 0.00 | 67 | 1013.2 |
| 20260509150017 | 75 | 74 | 0.0 | 3.5 | 0.00 | 0.00 | 0.00 | 68 | 1013.1 |
| 20260509144552 | 75 | 299 | 0.9 | 3.5 | 0.00 | 0.00 | 0.00 | 66 | 1013.2 |
| 20260509143032 | 72 | 199 | 0.0 | 2.6 | 0.00 | 0.00 | 0.00 | 68 | 1013.4 |
| 20260509141507 | 72 | 254 | 0.0 | 3.5 | 0.00 | 0.00 | 0.00 | 67 | 1013.5 |
| 20260509140056 | 71 | 176 | 0.0 | 2.6 | 0.00 | 0.00 | 0.00 | 70 | 1013.5 |
| 20260509134520 | 69 | 148 | 0.0 | 2.6 | 0.00 | 0.00 | 0.00 | 74 | 1013.7 |
| 20260509133059 | 68 | 147 | 0.0 | 1.7 | 0.00 | 0.00 | 0.00 | 76 | 1013.6 |
| 20260509133002 | 68 | 170 | 0.0 | 1.7 | 0.00 | 0.00 | 0.00 | 76 | 1013.6 |
| 20260509131535 | 66 | 145 | 0.0 | 1.7 | 0.00 | 0.00 | 0.00 | 78 | 1013.5 |
| 20260509130015 | 65 | 152 | 0.0 | 1.7 | 0.00 | 0.00 | 0.00 | 80 | 1013.5 |
| 20260509124553 | 63 | 138 | 0.0 | 1.7 | 0.00 | 0.00 | 0.00 | 82 | 1013.4 |
| 20260509123029 | 62 | 156 | 0.9 | 4.3 | 0.00 | 0.00 | 0.00 | 83 | 1013.4 |
| 20260509121509 | 61 | 129 | 0.9 | 2.6 | 0.00 | 0.00 | 0.00 | 84 | 1013.3 |
| 20260509120042 | 60 | 134 | 0.9 | 3.5 | 0.00 | 0.00 | 0.00 | 86 | 1013.0 |
| 20260509114523 | 60 | 312 | 0.0 | 0.0 | 0.00 | 0.00 | 0.00 | 85 | 1012.7 |
| 20260509113059 | 60 | 312 | 0.0 | 0.9 | 0.00 | 0.00 | 0.00 | 85 | 1012.6 |
| 20260509111541 | 61 | 21 | 0.0 | 0.9 | 0.00 | 0.00 | 0.00 | 84 | 1012.4 |
| 20260509110017 | 61 | 17 | 0.0 | 1.7 | 0.00 | 0.00 | 0.00 | 84 | 1012.0 |
| 20260509104603 | 61 | 30 | 0.0 | 2.6 | 0.00 | 0.00 | 0.00 | 84 | 1011.8 |
| 20260509103051 | 61 | 68 | 0.0 | 0.9 | 0.00 | 0.00 | 0.00 | 83 | 1011.7 |
| 20260509101520 | 61 | 295 | 0.0 | 0.9 | 0.00 | 0.00 | 0.00 | 82 | 1011.8 |
| 20260509100006 | 62 | 295 | 0.0 | 0.0 | 0.00 | 0.00 | 0.00 | 81 | 1011.7 |
| 20260509094555 | 62 | 243 | 0.0 | 4.3 | 0.00 | 0.00 | 0.00 | 81 | 1011.4 |
| 20260509093031 | 62 | 288 | 0.0 | 0.9 | 0.00 | 0.00 | 0.00 | 80 | 1011.7 |
| 20260509091511 | 62 | 205 | 0.0 | 1.7 | 0.00 | 0.00 | 0.00 | 79 | 1011.9 |
| 20260509090056 | 63 | 172 | 0.0 | 2.6 | 0.00 | 0.00 | 0.00 | 79 | 1012.0 |
| 20260509084537 | 63 | 160 | 0.0 | 3.5 | 0.00 | 0.00 | 0.00 | 78 | 1011.7 |